Pagrindinis puslapis
METAR-TAF:

METAR-TAF

Oro uostai :

Surathanis, Tailandas

platuma: 09-07N, ilguma: 099-21E, Aukštis: 10 m

Dabartinis oras

Ataskaita buvo paskelbta 59 minutes, ne 04:00 UTC
Vėjas 7 kt iš Šiaurės Rytų, svyruoja nuo Šiaurės/Šiaurės Vakarų ir Rytų
Temperatūra 32°C
Drėgmė 56%
Slėgis 1012 hPa
Matomumas 10 km arba daugiau
Mažai debesys ne aukštis 2000 ft

METAR: VTSB 290400Z 05007KT 340V100 9999 FEW020 32/22 Q1012

Laikas: 11:59 (04:59 UTC)

Prognozė

Ataskaita buvo paskelbta 5 valandos ir 59 minutes, ne 23:00 UTC
Prognozė galioja nuo 29 metu 00 UTC su 29 metu 24 UTC
Vėjas 5 kt iš Šiaurės/Šiaurės Vakarų
Matomumas 10 km arba daugiau
Mažai debesys ne aukštis 2000 ft
Tapsmas
nuo 29 metu 04 UTC su 29 metu 06 UTC
Vėjas 15 kt iš Šiaurės/Šiaurės Rytų
Tapsmas
nuo 29 metu 16 UTC su 29 metu 18 UTC
Vėjas 5 kt iš Šiaurės/Šiaurės Vakarų

TAF: VTSB 282300Z 2900/2924 33005KT 9999 FEW020 BECMG 2904/2906 03015KT BECMG 2916/2918 33005KT

Orai ataskaitas ir orų prognozės (METAR, TAF).

turimą stotys yra geltonos ir raudonos taškus žemėlapyje.

Perkelti pele per norėdami pamatyti stoties vardą.

Tada spustelėkite, norėdami matyti oro stebėjimo ir prognozės.

Norėdami pakeisti žemėlapį: spustelėkite ant žalios mygtukų su juodo kryžiaus žemyn,; žalią mygtuką su brūkšneliu, jei norite nutolinti; arba žalių rodyklių gretimoms žemėlapius.


METAR-TAF: